< < Back
Terminal Aerodrome Forecast


Current Version              Previous Versions:   1  2  3  4  5  6  7  8  9  

Terminal Aerodrome Forecast

838
FTUS44 KOHX 261700 RRA
TAFBNA
TAF
KBNA 261741Z 2618/2718 18005KT P6SM SCT250
     FM270000 20006KT P6SM -RA OVC050
     FM270300 28007KT P6SM -RA OVC025
     FM270700 30008KT 4SM -SN BR OVC015
     FM270900 32008KT P6SM OVC015
     FM271600 33008KT P6SM BKN030=



Latest METAR

704
SAUS70 KWBC 270100
MTRBNA
METAR KBNA 270053Z 20003KT 7SM -RA FEW021 BKN031 OVC040 06/04 A3003 RMK
AO2 SLP173 P0005 T00560039


USA.gov is the U.S. government's official web portal to all federal, state and local government web resources and services.